• Join FlightAware (Why Join?)
  • Login
  • US Flag 
10:06AM EDT


 

Airport Tracker/Info


-or-


 

Live Flight TrackerFlight Track Log ✈ ASQ4233 ✈ 07-May-2013 ✈ KIAH - KBHM

Flight Track Log - Related Links

Times and Time Zones

All times are in EDT time to prevent confusion due to time zone crossing. See the ASQ4233 flight status page for this flight to view local times or setup timezone preferences in your user account.

Time Position Orientation Groundspeed Altitude Reporting Facility
EDT Latitude Longitude Course Direction KTS MPH feet Rate Location/Type
06:46PM 29.9592 -95.3392 90° East 167 192 900  Level Houston Center
06:47PM 29.9494 -95.3258 130° Southeast 180 207 1,600 1,920 Climbing Houston Center
06:48PM 29.9117 -95.2708 128° Southeast 206 237 3,600 1,080 Climbing Houston Center
06:49PM 29.9834 -94.9689 90° East  Level FlightAware Approximate
06:49PM 29.8672 -95.2056 128° Southeast 249 287 3,900  Level Houston Center
06:50PM 29.9833 -94.8475 90° East  Level FlightAware Approximate
06:50PM 29.8458 -95.1358 109° East 272 313 5,300  Level Houston Center
06:51PM 29.9834 -94.7260 90° East  Level FlightAware Approximate
06:51PM 29.8228 -95.0472 107° East 280 322 7,800  Level Houston Center
06:52PM 29.8389 -94.9489 79° East 283 326 10,600 1,860 Climbing Houston Center
06:53PM 29.8597 -94.8594 75° East 334 384 11,700 960 Climbing Houston Center
06:54PM 29.8883 -94.7469 74° East 347 399 12,700 1,200 Climbing Houston Center
06:55PM 29.9225 -94.6083 74° East 371 427 14,500 1,500 Climbing Houston Center
06:56PM 29.9514 -94.4892 74° East 383 441 15,900 1,260 Climbing Houston Center
06:57PM 29.9819 -94.3611 75° East 391 450 17,200 1,200 Climbing Houston Center
06:58PM 30.0056 -94.2372 78° East 397 457 18,400 1,140 Climbing Houston Center
06:59PM 30.0206 -94.1072 82° East 409 471 19,600 1,080 Climbing Houston Center
07:00PM 30.0369 -93.9764 82° East 413 475 20,700 1,020 Climbing Houston Center
07:01PM 30.0528 -93.8422 82° East 422 486 21,800 960 Climbing Houston Center
07:02PM 30.0697 -93.7058 82° East 432 497 22,700 1,020 Climbing Houston Center
07:03PM 30.0897 -93.5414 82° East 437 503 24,000 1,140 Climbing Houston Center
07:04PM 30.1056 -93.4039 82° East 439 505 25,100 1,020 Climbing Houston Center
07:05PM 30.1219 -93.2658 82° East 440 506 26,200 1,020 Climbing Houston Center
07:06PM 30.1681 -93.1408 67° East 435 501 27,300 1,140 Climbing Houston Center
07:07PM 30.2425 -93.0019 58° Northeast 426 490 28,600 1,140 Climbing Houston Center
07:08PM 30.3033 -92.8875 58° Northeast 422 486 29,700 960 Climbing Houston Center
07:09PM 30.3653 -92.7714 58° Northeast 425 489 30,700 600 Climbing Houston Center
07:10PM 30.4292 -92.6522 58° Northeast 435 501 31,000 120 Climbing Houston Center
07:11PM 30.5033 -92.5119 58° Northeast 457 526 31,000  Level Houston Center
07:12PM 30.5728 -92.3825 58° Northeast 471 542 31,000  Level Houston Center
07:13PM 30.6408 -92.2522 59° Northeast 475 547 31,000  Level Houston Center
07:14PM 30.7069 -92.1256 59° Northeast 465 535 31,000  Level Houston Center
07:15PM 30.7722 -92.0014 59° Northeast 457 526 31,000  Level Houston Center
07:17PM 30.8508 -91.8542 58° Northeast 451 519 31,000  Level Houston Center
07:18PM 30.9158 -91.7294 59° Northeast 452 520 31,000  Level Houston Center
07:19PM 30.9800 -91.6044 59° Northeast 452 520 31,000  Level Houston Center
07:20PM 31.0447 -91.4803 59° Northeast 451 519 31,000  Level Houston Center
07:21PM 31.1122 -91.3469 59° Northeast 451 519 31,000  Level Houston Center
07:22PM 31.1789 -91.2200 58° Northeast 457 526 31,000  Level Houston Center
07:23PM 31.2442 -91.0914 59° Northeast 459 528 31,000  Level Houston Center
07:24PM 31.3092 -90.9628 59° Northeast 459 528 31,000  Level Houston Center
07:25PM 31.3753 -90.8339 59° Northeast 460 529 31,000  Level Houston Center
07:26PM 31.4417 -90.7036 59° Northeast 463 533 31,000  Level Houston Center
07:27PM 31.5186 -90.5494 60° Northeast 459 528 31,000  Level Houston Center
07:28PM 31.5844 -90.4194 59° Northeast 460 529 31,000  Level Houston Center
07:29PM 31.6494 -90.2914 59° Northeast 458 527 31,000  Level Houston Center
07:30PM 31.7142 -90.1625 59° Northeast 458 527 31,000  Level Houston Center
07:30PM 31.7489 -90.0886 61° Northeast 455 524 31,000  Level Memphis Center
07:31PM 31.8133 -89.9614 59° Northeast 455 524 31,000 -180 Level Memphis Center
07:32PM 31.8775 -89.8314 60° Northeast 455 524 30,700 -600 Descending Memphis Center
07:33PM 31.9417 -89.7036 59° Northeast 450 518 29,800 -900 Descending Memphis Center
07:34PM 32.0056 -89.5733 60° Northeast 450 518 29,000 -420 Descending Memphis Center
07:35PM 32.0672 -89.4456 60° Northeast 445 512 29,000  Level Memphis Center
07:36PM 32.1289 -89.3197 60° Northeast 445 512 29,000 -480 Level Memphis Center
07:37PM 32.1944 -89.1889 59° Northeast 450 518 28,100 -1,200 Descending Memphis Center
07:38PM 32.2581 -89.0578 60° Northeast 450 518 26,700 -1,620 Descending Memphis Center
07:39PM 32.3275 -88.9167 60° Northeast 450 518 24,900 -1,620 Descending Memphis Center
07:40PM 32.3886 -88.7928 60° Northeast 444 511 23,500 -960 Descending Memphis Center
07:41PM 32.4664 -88.6781 51° Northeast 444 511 23,000 -300 Descending Memphis Center
07:42PM 32.5464 -88.5681 49° Northeast 432 497 23,000  Level Memphis Center
07:43PM 32.6197 -88.4606 51° Northeast 427 491 23,000  Level Memphis Center
07:44PM 32.6953 -88.3503 51° Northeast 427 491 23,000  Level Memphis Center
07:46PM 32.8128 -88.1736 52° Northeast 438 504 23,000  Level Atlanta Center
07:47PM 32.8875 -88.0608 52° Northeast 438 504 23,000 -60 Level Atlanta Center
07:48PM 32.9750 -87.9386 50° Northeast 433 498 22,900 -1,200 Descending Atlanta Center
07:49PM 33.0386 -87.8400 52° Northeast 428 493 20,700 -2,340 Descending Atlanta Center
07:50PM 33.1106 -87.7339 51° Northeast 428 493 18,300 -2,340 Descending Atlanta Center
07:51PM 33.1847 -87.6253 51° Northeast 422 486 16,100 -2,400 Descending Atlanta Center
07:52PM 33.2303 -87.5628 49° Northeast 383 441 14,500 -2,220 Descending Atlanta Center
07:52PM 33.2503 -87.5289 55° Northeast 402 463 13,900 -1,860 Descending Atlanta Center
07:53PM 33.3022 -87.4539 50° Northeast 375 432 12,500 -1,740 Descending Atlanta Center
07:53PM 33.3136 -87.4269 63° Northeast 389 448 12,200 -1,320 Descending Atlanta Center
07:54PM 33.3408 -87.3483 67° East 340 391 11,200 -1,320 Descending Atlanta Center
07:54PM 33.3497 -87.3264 64° Northeast 355 409 10,900 -1,680 Descending Atlanta Center
07:55PM 33.3722 -87.2625 67° East 292 336 9,700 -1,800 Descending Atlanta Center
07:55PM 33.3792 -87.2331 74° East 322 371 9,100 -2,040 Descending Atlanta Center
07:56PM 33.4017 -87.1742 65° Northeast 284 327 7,700 -2,100 Descending Atlanta Center
07:56PM 33.4108 -87.1444 70° East 296 341 7,000 -2,400 Descending Atlanta Center
07:57PM 33.4267 -87.0953 69° East 269 310 5,500 -1,800 Descending Atlanta Center
07:57PM 33.4378 -87.0633 67° East 276 318 5,200 -1,140 Descending Atlanta Center
07:58PM 33.4536 -87.0167 68° East 260 299 4,400 -1,140 Descending Atlanta Center
07:58PM 33.4628 -86.9819 72° East 265 305 4,100 -900 Descending Atlanta Center
07:59PM 33.4742 -86.9425 71° East 240 276 3,500 -900 Descending Atlanta Center
07:59PM 33.4872 -86.9106 64° Northeast 246 283 3,200 -720 Descending Atlanta Center